Time;durP1;ratioP1;P1;durP2;ratioP2;P2;SDS_P1;SDS_P2;PMS_P1;PMS_P2;Temp;Humidity;BMP_temperature;BMP_pressure;BME280_temperature;BME280_humidity;BME280_pressure;Samples;Min_cycle;Max_cycle;Signal;HPM_P1;HPM_P2
2023/01/23 00:00:57;;;;;;;15.60;7.45;;;3.70;99.90;;;;;;5061830;28;20040;-80
2023/01/23 00:03:23;;;;;;;15.90;7.43;;;3.10;99.90;;;;;;5037957;28;20059;-80
2023/01/23 00:05:57;;;;;;;13.77;7.28;;;3.10;99.90;;;;;;5041900;28;20493;-80
2023/01/23 00:08:22;;;;;;;16.98;7.82;;;3.10;99.90;;;;;;5040897;28;20037;-80
2023/01/23 00:10:48;;;;;;;13.95;7.88;;;3.10;99.90;;;;;;5064947;28;20048;-80
2023/01/23 00:13:13;;;;;;;16.17;7.43;;;3.10;99.90;;;;;;5063903;28;20036;-80
2023/01/23 00:15:39;;;;;;;17.13;8.13;;;3.10;99.90;;;;;;5045184;28;20428;-79
2023/01/23 00:18:05;;;;;;;17.05;7.88;;;3.10;99.90;;;;;;5055768;28;20044;-79
2023/01/23 00:20:30;;;;;;;14.40;7.78;;;3.10;99.90;;;;;;5059149;28;20044;-79
2023/01/23 00:22:56;;;;;;;17.35;8.10;;;3.10;99.90;;;;;;5062445;28;20040;-80
2023/01/23 00:25:21;;;;;;;16.48;8.27;;;3.10;99.90;;;;;;5071349;28;20116;-80
2023/01/23 00:27:47;;;;;;;15.13;8.02;;;3.10;99.90;;;;;;5061780;28;20060;-80
2023/01/23 00:30:14;;;;;;;15.63;7.93;;;3.10;99.90;;;;;;5062482;28;20032;-81
2023/01/23 00:32:40;;;;;;;17.45;7.68;;;3.10;99.90;;;;;;5060764;28;20485;-80
2023/01/23 00:35:06;;;;;;;15.15;7.70;;;3.10;99.90;;;;;;5067502;28;20067;-80
2023/01/23 00:37:32;;;;;;;17.33;7.40;;;3.10;99.90;;;;;;5055685;28;20033;-80
2023/01/23 00:39:57;;;;;;;17.92;7.68;;;3.10;99.90;;;;;;5058319;28;20064;-79
2023/01/23 00:42:23;;;;;;;15.68;7.15;;;3.10;99.90;;;;;;5056605;28;20041;-79
2023/01/23 00:44:48;;;;;;;13.98;7.60;;;3.10;99.90;;;;;;5060571;28;20142;-80
2023/01/23 00:47:14;;;;;;;18.13;7.95;;;3.10;99.90;;;;;;5059514;28;20043;-80
2023/01/23 00:49:39;;;;;;;18.00;7.65;;;3.10;99.90;;;;;;5080690;28;20104;-79
2023/01/23 00:52:05;;;;;;;14.75;7.60;;;3.10;99.90;;;;;;5074646;28;20037;-80
2023/01/23 00:54:31;;;;;;;20.83;8.13;;;3.10;99.90;;;;;;5077155;28;20036;-80
2023/01/23 00:56:56;;;;;;;18.58;7.38;;;3.10;99.90;;;;;;5070522;28;20067;-80
2023/01/23 00:59:22;;;;;;;14.10;7.55;;;3.10;99.90;;;;;;5060421;28;20404;-80
2023/01/23 01:01:48;;;;;;;14.68;7.93;;;3.10;99.90;;;;;;5066489;28;20036;-80
2023/01/23 01:04:14;;;;;;;19.63;9.40;;;3.10;99.90;;;;;;5070189;28;20044;-80
2023/01/23 01:06:39;;;;;;;17.45;9.45;;;3.10;99.90;;;;;;5067282;28;20109;-80
2023/01/23 01:09:05;;;;;;;20.77;9.35;;;3.10;99.90;;;;;;5060123;28;20037;-80
2023/01/23 01:11:30;;;;;;;15.90;8.50;;;3.10;99.90;;;;;;5057463;28;20033;-80
2023/01/23 01:13:56;;;;;;;15.57;8.05;;;3.10;99.90;;;;;;5055361;28;20041;-80
2023/01/23 01:16:23;;;;;;;16.27;8.15;;;3.10;99.90;;;;;;5057678;28;20056;-80
2023/01/23 01:18:49;;;;;;;18.42;7.90;;;3.10;99.90;;;;;;5066900;28;20052;-80
2023/01/23 01:21:16;;;;;;;14.90;8.00;;;3.10;99.90;;;;;;5060597;28;20485;-80
2023/01/23 01:23:41;;;;;;;14.93;8.23;;;3.10;99.90;;;;;;5053812;28;20131;-80
2023/01/23 01:26:07;;;;;;;14.90;7.72;;;3.10;99.90;;;;;;5064081;28;20092;-80
2023/01/23 01:28:34;;;;;;;13.80;7.32;;;3.10;99.90;;;;;;5054134;28;20044;-80
2023/01/23 01:31:07;;;;;;;17.35;7.75;;;3.10;99.90;;;;;;5053309;28;20044;-80
2023/01/23 01:33:34;;;;;;;14.98;7.53;;;3.10;99.90;;;;;;5047698;28;20033;-80
2023/01/23 01:36:06;;;;;;;14.70;7.63;;;3.10;99.90;;;;;;5061719;28;20041;-80
2023/01/23 01:38:31;;;;;;;15.82;7.63;;;3.10;99.90;;;;;;5046672;28;20052;-80
2023/01/23 01:40:57;;;;;;;15.10;8.25;;;3.10;99.90;;;;;;5055875;28;20041;-79
2023/01/23 01:43:25;;;;;;;15.15;8.15;;;3.10;99.90;;;;;;5036919;28;20072;-79
2023/01/23 01:46:16;;;;;;;17.15;8.07;;;3.20;99.90;;;;;;5053732;28;20053;-79
2023/01/23 01:48:44;;;;;;;13.55;7.22;;;3.10;99.90;;;;;;5058840;28;20087;-79
2023/01/23 01:51:28;;;;;;;14.13;7.80;;;3.10;99.90;;;;;;5051871;28;20040;-80
2023/01/23 01:54:08;;;;;;;15.38;8.05;;;3.00;99.90;;;;;;5050921;28;20123;-80
2023/01/23 01:56:40;;;;;;;15.43;8.00;;;3.10;99.90;;;;;;5048737;28;20148;-79
2023/01/23 01:59:07;;;;;;;17.67;7.72;;;3.10;99.90;;;;;;5053014;28;20047;-80
2023/01/23 02:01:33;;;;;;;13.85;8.00;;;3.10;99.90;;;;;;5057495;28;20535;-80
2023/01/23 02:04:00;;;;;;;15.38;7.93;;;3.10;99.90;;;;;;5053123;28;20047;-79
2023/01/23 02:06:26;;;;;;;15.90;8.50;;;3.10;99.90;;;;;;5055949;28;20044;-78
2023/01/23 02:09:23;;;;;;;20.77;9.38;;;3.10;99.90;;;;;;5061718;28;20500;-79
2023/01/23 02:11:49;;;;;;;15.98;8.80;;;3.10;99.90;;;;;;5036923;28;20066;-76
2023/01/23 02:14:15;;;;;;;17.67;9.23;;;3.10;99.90;;;;;;5059611;28;20048;-79
2023/01/23 02:16:49;;;;;;;14.55;8.77;;;3.10;99.90;;;;;;5054094;28;20439;-78
2023/01/23 02:19:39;;;;;;;16.02;8.00;;;3.10;99.90;;;;;;5064307;28;20464;-79
2023/01/23 02:22:31;;;;;;;17.35;8.52;;;3.10;99.90;;;;;;5033616;28;20108;-79
2023/01/23 02:25:15;;;;;;;19.05;8.98;;;3.10;99.90;;;;;;5050932;28;20120;-79
2023/01/23 02:27:40;;;;;;;20.92;8.80;;;3.10;99.90;;;;;;5057093;28;20094;-79
2023/01/23 02:30:08;;;;;;;17.48;8.35;;;3.10;99.90;;;;;;5056770;28;20914;-78
2023/01/23 02:32:34;;;;;;;17.27;9.23;;;3.10;99.90;;;;;;5061525;28;20036;-79
2023/01/23 02:35:08;;;;;;;17.25;9.10;;;3.20;99.90;;;;;;5065424;28;20044;-79
2023/01/23 02:37:36;;;;;;;20.50;8.88;;;3.10;99.90;;;;;;5060138;28;20052;-79
2023/01/23 02:40:03;;;;;;;17.75;8.98;;;3.10;99.90;;;;;;5074053;28;20044;-77
2023/01/23 02:42:29;;;;;;;15.52;8.82;;;3.10;99.90;;;;;;5072255;28;20040;-77
2023/01/23 02:44:56;;;;;;;19.58;9.23;;;3.20;99.90;;;;;;5084167;28;20041;-79
2023/01/23 02:47:22;;;;;;;16.25;8.93;;;3.10;99.90;;;;;;5057187;28;20037;-78
2023/01/23 02:49:48;;;;;;;16.52;8.57;;;3.20;99.90;;;;;;5057135;28;20102;-78
2023/01/23 02:52:13;;;;;;;16.58;9.07;;;3.20;99.90;;;;;;5061351;28;20032;-79
2023/01/23 02:54:39;;;;;;;16.33;9.13;;;3.10;99.90;;;;;;5059205;28;20171;-79
2023/01/23 02:57:05;;;;;;;18.10;8.93;;;3.20;99.90;;;;;;5060423;28;20036;-79
2023/01/23 03:02:16;;;;;;;16.13;9.05;;;3.20;99.90;;;;;;5052741;28;20107;-79
2023/01/23 03:04:41;;;;;;;19.23;10.23;;;3.20;99.90;;;;;;5069689;28;20040;-79
2023/01/23 03:07:07;;;;;;;20.92;9.45;;;3.20;99.90;;;;;;5064776;28;20071;-79
2023/01/23 03:09:32;;;;;;;17.92;9.60;;;3.20;99.90;;;;;;5063105;28;20481;-78
2023/01/23 03:11:59;;;;;;;20.52;10.15;;;3.20;99.90;;;;;;5060261;28;20041;-79
2023/01/23 03:14:25;;;;;;;18.58;9.60;;;3.20;99.90;;;;;;5060756;28;20426;-77
2023/01/23 03:16:52;;;;;;;20.65;9.30;;;3.20;99.90;;;;;;5042672;28;20098;-78
2023/01/23 03:19:22;;;;;;;20.63;9.82;;;3.20;99.90;;;;;;5050872;28;20036;-79
2023/01/23 03:21:48;;;;;;;17.75;9.13;;;3.20;99.90;;;;;;5057683;28;20071;-79
2023/01/23 03:24:14;;;;;;;18.30;9.15;;;3.70;99.90;;;;;;5060807;28;20520;-79
2023/01/23 03:26:41;;;;;;;18.65;9.98;;;3.20;99.90;;;;;;5064982;28;20189;-79
2023/01/23 03:31:55;;;;;;;17.05;10.07;;;3.20;99.90;;;;;;5060352;28;20087;-78
2023/01/23 03:34:21;;;;;;;23.52;10.40;;;3.20;99.90;;;;;;5070397;28;20033;-79
2023/01/23 03:36:47;;;;;;;20.48;10.07;;;3.20;99.90;;;;;;5062681;28;20550;-79
2023/01/23 03:41:56;;;;;;;18.10;10.32;;;3.20;99.90;;;;;;5060425;28;20052;-79
2023/01/23 03:44:22;;;;;;;19.90;10.90;;;3.20;99.90;;;;;;5059798;28;20037;-79
2023/01/23 03:46:49;;;;;;;16.58;10.02;;;3.20;99.90;;;;;;5050886;28;20546;-79
2023/01/23 03:49:16;;;;;;;22.00;9.85;;;3.20;99.90;;;;;;5052716;28;20037;-79
2023/01/23 03:51:41;;;;;;;16.55;9.68;;;3.20;99.90;;;;;;5061139;28;20033;-79
2023/01/23 03:54:07;;;;;;;20.10;10.88;;;3.20;99.90;;;;;;5055448;28;20155;-79
2023/01/23 03:56:33;;;;;;;17.65;10.10;;;3.20;99.90;;;;;;5056762;28;20033;-80
2023/01/23 03:58:59;;;;;;;16.67;10.30;;;3.20;99.90;;;;;;5042651;28;20041;-79
2023/01/23 04:01:24;;;;;;;19.17;10.05;;;3.20;99.90;;;;;;5069444;28;20411;-79
2023/01/23 04:03:50;;;;;;;17.83;9.82;;;3.20;99.90;;;;;;5056708;28;20044;-79
2023/01/23 04:06:17;;;;;;;17.27;9.90;;;3.20;99.90;;;;;;5068853;28;20036;-78
2023/01/23 04:08:42;;;;;;;16.83;10.32;;;3.20;99.90;;;;;;5060001;28;20128;-79
2023/01/23 04:11:09;;;;;;;19.63;9.95;;;3.20;99.90;;;;;;5056393;28;20079;-78
2023/01/23 04:13:38;;;;;;;17.85;10.40;;;3.20;99.90;;;;;;5033128;28;20040;-79
2023/01/23 04:16:05;;;;;;;19.77;10.23;;;3.20;99.90;;;;;;5061625;28;20029;-79
2023/01/23 04:18:31;;;;;;;21.58;9.90;;;3.20;99.90;;;;;;5056706;28;20116;-77
2023/01/23 04:20:56;;;;;;;19.25;10.48;;;3.20;99.90;;;;;;5050893;28;20614;-78
2023/01/23 04:23:23;;;;;;;18.98;10.10;;;3.30;99.90;;;;;;5056869;28;20052;-79
2023/01/23 04:25:50;;;;;;;18.58;10.38;;;3.20;99.90;;;;;;5058233;28;20040;-77
2023/01/23 04:28:16;;;;;;;18.75;10.07;;;3.20;99.90;;;;;;5056901;28;20044;-79
2023/01/23 04:30:41;;;;;;;17.55;10.73;;;3.20;99.90;;;;;;5058599;28;20036;-79
2023/01/23 04:33:07;;;;;;;19.35;9.82;;;3.30;99.90;;;;;;5071519;28;20060;-77
2023/01/23 04:35:33;;;;;;;22.60;10.40;;;3.30;99.90;;;;;;5077470;28;20068;-78
2023/01/23 04:37:58;;;;;;;19.73;10.48;;;3.20;99.90;;;;;;5067527;28;20099;-79
2023/01/23 04:40:24;;;;;;;20.88;10.40;;;3.30;99.90;;;;;;5066011;28;20029;-79
2023/01/23 04:42:50;;;;;;;20.40;10.20;;;3.30;99.90;;;;;;5036506;28;20048;-79
2023/01/23 04:45:15;;;;;;;17.35;9.30;;;3.20;99.90;;;;;;5040007;28;20041;-79
2023/01/23 04:47:41;;;;;;;20.48;10.18;;;3.30;99.90;;;;;;5052775;28;20051;-78
2023/01/23 04:50:07;;;;;;;18.05;10.80;;;3.30;99.90;;;;;;5057462;28;20053;-79
2023/01/23 04:52:33;;;;;;;18.00;10.35;;;3.30;99.90;;;;;;5070586;28;20037;-79
2023/01/23 04:54:58;;;;;;;17.15;10.27;;;3.30;99.90;;;;;;5050490;28;20072;-79
2023/01/23 04:57:24;;;;;;;19.83;10.25;;;3.30;99.90;;;;;;5037787;28;20039;-79
2023/01/23 04:59:49;;;;;;;21.15;10.65;;;3.30;99.90;;;;;;5056178;28;20041;-78
2023/01/23 05:02:15;;;;;;;20.92;10.55;;;3.30;99.90;;;;;;5058204;28;20090;-79
2023/01/23 05:04:41;;;;;;;19.73;10.85;;;3.30;99.90;;;;;;5056899;28;20070;-79
2023/01/23 05:07:10;;;;;;;20.75;11.15;;;3.30;99.90;;;;;;5061806;28;20454;-79
2023/01/23 05:09:36;;;;;;;19.70;10.73;;;3.30;99.90;;;;;;5062452;28;20037;-76
2023/01/23 05:12:02;;;;;;;22.08;11.07;;;3.30;99.90;;;;;;5060808;28;20033;-79
2023/01/23 05:14:28;;;;;;;22.63;11.05;;;3.30;99.90;;;;;;5045722;28;20717;-78
2023/01/23 05:16:53;;;;;;;19.17;10.38;;;3.30;99.90;;;;;;5052729;28;20029;-79
2023/01/23 05:19:19;;;;;;;18.98;10.55;;;3.30;99.90;;;;;;5056834;28;20037;-79
2023/01/23 05:21:44;;;;;;;23.52;10.63;;;3.30;99.90;;;;;;5042517;28;20511;-79
2023/01/23 05:24:10;;;;;;;18.70;10.23;;;3.20;99.90;;;;;;5065557;28;20496;-78
2023/01/23 05:26:36;;;;;;;20.98;11.32;;;3.30;99.90;;;;;;5058704;28;20044;-79
2023/01/23 05:29:02;;;;;;;17.83;10.90;;;3.30;99.90;;;;;;5065063;28;20048;-79
2023/01/23 05:31:28;;;;;;;23.48;11.55;;;3.30;99.90;;;;;;5058494;28;20496;-79
2023/01/23 05:33:53;;;;;;;19.10;10.80;;;3.30;99.90;;;;;;5063139;28;20055;-79
2023/01/23 05:36:19;;;;;;;19.65;10.57;;;3.30;99.90;;;;;;5064621;28;20040;-79
2023/01/23 05:38:45;;;;;;;20.83;10.65;;;3.30;99.90;;;;;;5049476;28;20032;-79
2023/01/23 05:41:13;;;;;;;19.92;10.95;;;3.50;99.90;;;;;;5047389;28;20033;-79
2023/01/23 05:43:39;;;;;;;20.58;11.45;;;3.40;99.90;;;;;;5050036;28;20044;-79
2023/01/23 05:46:04;;;;;;;24.25;11.85;;;3.30;99.90;;;;;;5045139;28;20039;-81
2023/01/23 05:48:30;;;;;;;19.05;10.70;;;3.30;99.90;;;;;;5060336;28;20044;-80
2023/01/23 05:50:56;;;;;;;17.98;9.88;;;3.30;99.90;;;;;;5054910;28;20044;-80
2023/01/23 05:53:21;;;;;;;20.73;10.90;;;3.30;99.90;;;;;;5051637;28;20055;-81
2023/01/23 05:56:05;;;;;;;18.98;10.85;;;3.30;99.90;;;;;;5050620;28;20030;-81
2023/01/23 05:58:31;;;;;;;17.02;10.63;;;3.30;99.90;;;;;;5061964;28;20044;-80
2023/01/23 06:00:56;;;;;;;21.75;10.25;;;3.30;99.90;;;;;;5038030;28;20041;-80
2023/01/23 06:03:22;;;;;;;19.50;11.02;;;3.30;99.90;;;;;;5051841;28;20045;-80
2023/01/23 06:05:48;;;;;;;20.75;10.57;;;3.20;99.90;;;;;;5052450;28;20163;-79
2023/01/23 06:08:13;;;;;;;18.75;10.13;;;3.30;99.90;;;;;;5036879;28;20039;-80
2023/01/23 06:10:39;;;;;;;19.65;10.52;;;3.30;99.90;;;;;;5058355;28;20053;-80
2023/01/23 06:13:05;;;;;;;19.25;10.75;;;3.30;99.90;;;;;;5060259;28;20044;-81
2023/01/23 06:15:31;;;;;;;19.90;11.27;;;3.30;99.90;;;;;;5044354;28;20118;-79
2023/01/23 06:17:56;;;;;;;17.65;10.30;;;3.20;99.90;;;;;;5043276;28;20036;-80
2023/01/23 06:20:22;;;;;;;20.88;11.25;;;3.30;99.90;;;;;;5041662;28;20123;-80
2023/01/23 06:22:50;;;;;;;17.38;10.43;;;3.30;99.90;;;;;;5038136;28;20249;-80
2023/01/23 06:25:17;;;;;;;18.00;10.48;;;3.30;99.90;;;;;;5058667;28;20086;-79
2023/01/23 06:27:42;;;;;;;17.70;10.80;;;3.30;99.90;;;;;;5076109;28;20049;-79
2023/01/23 06:30:09;;;;;;;19.85;10.35;;;3.30;99.90;;;;;;5070260;28;20075;-80
2023/01/23 06:32:34;;;;;;;23.40;11.60;;;3.20;99.90;;;;;;5056081;28;20078;-80
2023/01/23 06:35:01;;;;;;;19.77;10.93;;;3.30;99.90;;;;;;5051282;28;20045;-80
2023/01/23 06:37:26;;;;;;;20.30;9.88;;;3.30;99.90;;;;;;5055045;28;20041;-81
2023/01/23 06:39:52;;;;;;;18.30;10.20;;;3.40;99.90;;;;;;5057586;28;20040;-79
2023/01/23 06:42:17;;;;;;;19.40;10.43;;;3.30;99.90;;;;;;5038189;28;20456;-79
2023/01/23 06:44:43;;;;;;;19.30;10.27;;;3.30;99.90;;;;;;5055423;28;20174;-79
2023/01/23 06:47:09;;;;;;;20.27;10.63;;;3.30;99.90;;;;;;5053812;28;20755;-79
2023/01/23 06:49:35;;;;;;;17.65;9.85;;;3.30;99.90;;;;;;5054435;28;20044;-79
2023/01/23 06:52:00;;;;;;;20.92;11.27;;;3.20;99.90;;;;;;5061375;28;20040;-79
2023/01/23 06:54:26;;;;;;;22.75;10.63;;;3.30;99.90;;;;;;5049601;28;20547;-79
2023/01/23 06:56:51;;;;;;;19.85;10.38;;;3.30;99.90;;;;;;5048915;28;20100;-79
2023/01/23 06:59:17;;;;;;;19.80;10.80;;;3.30;99.90;;;;;;5034263;28;20462;-79
2023/01/23 07:01:43;;;;;;;17.17;10.05;;;3.30;99.90;;;;;;5051139;28;20044;-77
2023/01/23 07:04:08;;;;;;;18.70;10.68;;;3.30;99.90;;;;;;5055671;28;20055;-79
2023/01/23 07:06:34;;;;;;;20.23;11.02;;;3.20;99.90;;;;;;5035329;28;20041;-75
2023/01/23 07:09:00;;;;;;;20.40;11.18;;;3.30;99.90;;;;;;5052954;28;20033;-75
2023/01/23 07:11:25;;;;;;;19.05;10.80;;;3.20;99.90;;;;;;5047882;28;20042;-77
2023/01/23 07:13:51;;;;;;;21.85;10.80;;;3.30;99.90;;;;;;5035108;28;20048;-77
2023/01/23 07:16:18;;;;;;;20.77;10.70;;;3.30;99.90;;;;;;5050300;28;20033;-78
2023/01/23 07:18:43;;;;;;;17.40;10.02;;;3.20;99.90;;;;;;5048091;28;20029;-76
2023/01/23 07:21:09;;;;;;;20.05;11.25;;;3.30;99.90;;;;;;5048127;28;20425;-78
2023/01/23 07:23:35;;;;;;;17.27;10.40;;;3.30;99.90;;;;;;5051855;28;20047;-77
2023/01/23 07:26:03;;;;;;;16.95;10.60;;;3.20;99.90;;;;;;5051350;28;20499;-77
2023/01/23 07:28:29;;;;;;;19.08;10.60;;;3.30;99.90;;;;;;5050104;28;20080;-78
2023/01/23 07:30:57;;;;;;;19.83;10.60;;;3.20;99.90;;;;;;5054884;28;20052;-78
2023/01/23 07:33:29;;;;;;;18.33;10.88;;;3.20;99.90;;;;;;5051259;28;20036;-78
2023/01/23 07:35:54;;;;;;;22.43;11.40;;;3.20;99.90;;;;;;5042273;28;20444;-78
2023/01/23 07:38:22;;;;;;;20.15;11.73;;;3.40;99.90;;;;;;5051653;28;20288;-77
2023/01/23 07:40:51;;;;;;;21.40;11.23;;;3.20;99.90;;;;;;5042516;28;21202;-78
2023/01/23 07:43:17;;;;;;;17.95;10.57;;;3.20;99.90;;;;;;5049004;28;20496;-78
2023/01/23 07:45:43;;;;;;;17.77;11.30;;;3.20;99.90;;;;;;5044354;28;20028;-78
2023/01/23 07:48:09;;;;;;;20.95;10.68;;;3.80;99.90;;;;;;5048513;28;20702;-78
2023/01/23 07:50:36;;;;;;;19.60;11.30;;;3.30;99.90;;;;;;5026695;28;20033;-78
2023/01/23 07:53:03;;;;;;;18.92;10.80;;;3.20;99.90;;;;;;5041904;28;20038;-78
2023/01/23 07:55:29;;;;;;;21.88;11.48;;;3.40;99.90;;;;;;5047531;28;20068;-78
2023/01/23 07:57:55;;;;;;;22.90;10.77;;;3.30;99.90;;;;;;5042812;28;20033;-77
2023/01/23 08:00:21;;;;;;;19.33;10.80;;;3.20;99.90;;;;;;5044496;28;20034;-77
2023/01/23 08:02:47;;;;;;;21.98;11.93;;;3.30;99.90;;;;;;5053979;28;20051;-79
2023/01/23 08:05:12;;;;;;;18.33;10.68;;;3.20;99.90;;;;;;5047942;28;20481;-80
2023/01/23 08:07:38;;;;;;;21.33;11.38;;;3.30;99.90;;;;;;5048273;28;20037;-79
2023/01/23 08:10:04;;;;;;;19.58;11.10;;;3.30;99.90;;;;;;5043121;28;20060;-80
2023/01/23 08:12:30;;;;;;;23.88;12.75;;;3.30;99.90;;;;;;5032441;28;20060;-79
2023/01/23 08:14:55;;;;;;;23.48;13.07;;;3.30;99.90;;;;;;5051015;28;20068;-78
2023/01/23 08:17:21;;;;;;;21.88;12.30;;;3.30;99.90;;;;;;5058456;28;20043;-78
2023/01/23 08:19:48;;;;;;;20.58;11.85;;;3.30;99.90;;;;;;5057130;28;20032;-78
2023/01/23 08:22:13;;;;;;;25.45;12.20;;;3.30;99.90;;;;;;5046482;28;20037;-79
2023/01/23 08:24:39;;;;;;;20.10;11.40;;;3.30;99.90;;;;;;5053039;28;20389;-78
2023/01/23 08:27:05;;;;;;;18.13;11.38;;;3.30;99.90;;;;;;5048449;28;20060;-78
2023/01/23 08:29:31;;;;;;;20.77;11.57;;;3.40;99.90;;;;;;5039657;28;20095;-78
2023/01/23 08:31:56;;;;;;;22.55;11.80;;;3.60;99.90;;;;;;5050843;28;20409;-79
2023/01/23 08:34:23;;;;;;;20.25;11.93;;;3.30;99.90;;;;;;5052081;28;20052;-78
2023/01/23 08:36:49;;;;;;;19.83;12.32;;;3.70;99.90;;;;;;5048387;28;20140;-79
2023/01/23 08:39:18;;;;;;;19.83;12.05;;;3.40;99.90;;;;;;5049363;28;20055;-78
2023/01/23 08:41:44;;;;;;;22.38;12.40;;;3.40;99.90;;;;;;5046091;28;20505;-78
2023/01/23 08:44:10;;;;;;;18.63;11.88;;;3.40;99.90;;;;;;5056202;28;20037;-78
2023/01/23 08:46:36;;;;;;;18.83;11.77;;;3.40;99.90;;;;;;5047746;28;20044;-79
2023/01/23 08:49:03;;;;;;;17.48;11.32;;;3.50;99.90;;;;;;5050562;28;20083;-79
2023/01/23 08:51:29;;;;;;;21.08;11.52;;;3.50;99.90;;;;;;5048365;28;20048;-78
2023/01/23 08:53:55;;;;;;;19.75;11.20;;;3.50;99.90;;;;;;5050433;28;20033;-78
2023/01/23 08:56:22;;;;;;;18.88;11.13;;;3.50;99.90;;;;;;5046057;28;20553;-79
2023/01/23 08:58:48;;;;;;;19.65;11.65;;;3.50;99.90;;;;;;5050551;28;20025;-78
2023/01/23 09:01:22;;;;;;;18.60;11.23;;;3.50;99.90;;;;;;5050318;28;20041;-78
2023/01/23 09:03:48;;;;;;;18.45;11.88;;;3.60;99.90;;;;;;5049435;28;20052;-78
2023/01/23 09:06:17;;;;;;;18.33;10.82;;;3.60;99.90;;;;;;5024687;28;20056;-78
2023/01/23 09:08:43;;;;;;;17.65;10.73;;;3.60;99.90;;;;;;5046977;28;20048;-78
2023/01/23 09:11:10;;;;;;;20.80;11.75;;;3.60;99.90;;;;;;5044117;28;20408;-78
2023/01/23 09:13:37;;;;;;;22.48;12.40;;;3.70;99.90;;;;;;5032706;28;20033;-77
2023/01/23 09:16:03;;;;;;;18.85;10.70;;;3.60;99.90;;;;;;5055944;28;20407;-78
2023/01/23 09:18:29;;;;;;;16.48;10.68;;;3.70;99.90;;;;;;5062177;28;20087;-78
2023/01/23 09:20:55;;;;;;;17.67;11.00;;;3.70;99.90;;;;;;5041169;28;20683;-78
2023/01/23 09:23:21;;;;;;;18.60;11.50;;;3.70;99.90;;;;;;5048063;28;20037;-78
2023/01/23 09:25:47;;;;;;;18.42;11.07;;;3.70;99.90;;;;;;5052988;28;20158;-79
2023/01/23 09:28:13;;;;;;;18.42;10.73;;;3.80;99.90;;;;;;5058121;28;20520;-79
2023/01/23 09:30:39;;;;;;;19.05;10.88;;;3.70;99.90;;;;;;5040031;28;20041;-78
2023/01/23 09:33:05;;;;;;;18.50;11.57;;;3.80;99.90;;;;;;5033592;28;20120;-78
2023/01/23 09:35:31;;;;;;;17.13;10.68;;;3.80;99.90;;;;;;5055564;28;20036;-78
2023/01/23 09:37:59;;;;;;;19.25;10.85;;;3.80;99.90;;;;;;5047525;28;20033;-78
2023/01/23 09:40:49;;;;;;;16.10;10.52;;;3.80;99.90;;;;;;5045157;28;20069;-78
2023/01/23 09:43:30;;;;;;;16.45;10.18;;;3.60;99.90;;;;;;5038956;28;20436;-78
2023/01/23 09:46:09;;;;;;;18.73;10.82;;;3.80;99.90;;;;;;5042442;28;20151;-77
2023/01/23 09:49:08;;;;;;;18.45;10.25;;;3.80;99.90;;;;;;5051193;28;20084;-77
2023/01/23 09:51:37;;;;;;;17.25;10.27;;;3.80;99.90;;;;;;5046554;28;20033;-77
2023/01/23 09:54:48;;;;;;;16.45;10.00;;;3.80;99.90;;;;;;5046550;28;20592;-80
2023/01/23 09:57:27;;;;;;;19.25;10.48;;;3.90;99.90;;;;;;5046578;28;20068;-77
2023/01/23 10:00:12;;;;;;;15.25;9.50;;;3.80;99.90;;;;;;5041742;28;20029;-77
2023/01/23 10:02:42;;;;;;;18.77;10.65;;;3.90;99.90;;;;;;5055970;28;20116;-78
2023/01/23 10:05:13;;;;;;;15.45;9.75;;;3.90;99.90;;;;;;5049799;28;20064;-78
2023/01/23 10:08:05;;;;;;;16.45;9.60;;;3.90;99.90;;;;;;5044628;28;20039;-78
2023/01/23 10:10:42;;;;;;;15.23;9.73;;;3.90;99.90;;;;;;5067833;28;20055;-78
2023/01/23 10:13:13;;;;;;;16.92;9.32;;;3.90;99.90;;;;;;5052109;28;20043;-77
2023/01/23 10:16:07;;;;;;;16.17;9.43;;;3.90;99.90;;;;;;5051327;28;20037;-78
2023/01/23 10:18:46;;;;;;;16.00;10.02;;;3.90;99.90;;;;;;5058871;28;20047;-78
2023/01/23 10:21:56;;;;;;;17.08;10.15;;;4.80;99.90;;;;;;5047208;28;20042;-80
2023/01/23 10:24:45;;;;;;;18.60;9.48;;;4.00;99.90;;;;;;4954261;28;20082;-78
2023/01/23 10:27:33;;;;;;;14.80;8.70;;;4.00;99.90;;;;;;5061012;28;20128;-79
2023/01/23 10:30:03;;;;;;;16.15;9.98;;;4.00;99.90;;;;;;5053294;28;20052;-77
2023/01/23 10:32:40;;;;;;;15.48;9.57;;;4.00;99.90;;;;;;5046762;28;20036;-78
2023/01/23 10:35:16;;;;;;;15.45;9.23;;;4.30;99.90;;;;;;5059781;28;20444;-79
2023/01/23 10:37:55;;;;;;;18.40;9.52;;;4.00;99.90;;;;;;5063215;28;20037;-77
2023/01/23 10:43:16;;;;;;;21.02;10.18;;;4.00;99.90;;;;;;5049408;28;20109;-78
2023/01/23 10:45:44;;;;;;;17.15;9.50;;;4.00;99.90;;;;;;5062699;28;20037;-77
2023/01/23 10:48:27;;;;;;;15.77;9.32;;;4.00;99.90;;;;;;5062527;28;20044;-76
2023/01/23 10:50:54;;;;;;;15.45;8.90;;;4.00;99.90;;;;;;5056247;28;20048;-76
2023/01/23 10:53:20;;;;;;;16.98;9.88;;;4.00;99.90;;;;;;5065106;28;20040;-76
2023/01/23 10:55:49;;;;;;;16.95;9.02;;;4.00;99.90;;;;;;5051095;28;20112;-75
2023/01/23 10:58:35;;;;;;;15.02;8.95;;;4.00;99.90;;;;;;5045354;28;20040;-76
2023/01/23 11:01:03;;;;;;;13.85;8.65;;;4.10;99.90;;;;;;5061119;28;20044;-75
2023/01/23 11:03:32;;;;;;;15.23;8.90;;;4.10;99.90;;;;;;5055383;28;20045;-76
2023/01/23 11:06:15;;;;;;;14.55;8.55;;;4.10;99.90;;;;;;5050808;28;20059;-76
2023/01/23 11:09:00;;;;;;;14.00;8.43;;;4.10;99.90;;;;;;5056156;28;20043;-76
2023/01/23 11:11:29;;;;;;;13.60;7.90;;;4.10;99.90;;;;;;5048474;28;20428;-76
2023/01/23 11:14:10;;;;;;;14.05;8.10;;;4.10;99.90;;;;;;5069339;28;20047;-75
2023/01/23 11:16:37;;;;;;;12.13;7.90;;;4.10;99.90;;;;;;5058982;28;20028;-76
2023/01/23 11:19:14;;;;;;;14.48;8.32;;;4.20;99.90;;;;;;5062981;28;20059;-76
2023/01/23 11:22:03;;;;;;;13.55;8.00;;;4.10;99.90;;;;;;5062973;28;20045;-76
2023/01/23 11:24:37;;;;;;;12.70;8.02;;;4.20;99.90;;;;;;5042275;28;20036;-76
2023/01/23 11:27:18;;;;;;;14.15;7.95;;;4.20;99.90;;;;;;5048684;28;20052;-76
2023/01/23 11:29:52;;;;;;;13.00;8.60;;;4.40;99.90;;;;;;5056174;28;20059;-76
2023/01/23 11:32:20;;;;;;;13.68;7.82;;;4.20;99.90;;;;;;5056929;28;20075;-76
2023/01/23 11:34:49;;;;;;;12.48;7.88;;;4.20;99.90;;;;;;5048854;28;20125;-76
2023/01/23 11:37:27;;;;;;;13.38;8.00;;;4.30;99.90;;;;;;5050797;28;20043;-76
2023/01/23 11:40:00;;;;;;;12.27;7.47;;;4.30;99.90;;;;;;5056839;28;20036;-76
2023/01/23 11:42:27;;;;;;;14.20;8.10;;;4.40;99.90;;;;;;5048739;28;20138;-76
2023/01/23 11:44:53;;;;;;;11.95;7.25;;;4.40;99.90;;;;;;5060015;28;20044;-76
2023/01/23 11:47:48;;;;;;;11.88;7.43;;;4.40;99.90;;;;;;5058657;28;20052;-76
2023/01/23 11:50:26;;;;;;;13.02;7.75;;;4.50;99.90;;;;;;5037293;28;20044;-76
2023/01/23 11:53:27;;;;;;;13.18;8.02;;;4.50;99.90;;;;;;5060072;28;20041;-76
2023/01/23 11:56:14;;;;;;;14.40;7.10;;;4.50;99.90;;;;;;5053900;28;20037;-76
2023/01/23 11:59:01;;;;;;;11.70;7.63;;;4.60;99.90;;;;;;5057145;28;20043;-76
2023/01/23 12:01:47;;;;;;;11.88;7.53;;;4.60;99.90;;;;;;5050131;28;20044;-76
2023/01/23 12:04:19;;;;;;;10.77;7.38;;;4.70;99.90;;;;;;5052065;28;20037;-76
2023/01/23 12:07:08;;;;;;;12.02;7.60;;;4.70;99.90;;;;;;5049933;28;20052;-76
2023/01/23 12:09:50;;;;;;;11.25;7.30;;;4.70;99.90;;;;;;5060302;28;20052;-76
2023/01/23 12:12:29;;;;;;;12.70;7.15;;;4.70;99.90;;;;;;5038602;28;20090;-76
2023/01/23 12:14:55;;;;;;;13.00;7.13;;;4.70;99.90;;;;;;5045382;28;20378;-76
2023/01/23 12:17:41;;;;;;;10.90;7.20;;;4.70;99.90;;;;;;5062453;28;20039;-75
2023/01/23 12:20:31;;;;;;;11.85;7.30;;;5.50;99.90;;;;;;5061657;28;20029;-77
2023/01/23 12:23:44;;;;;;;11.00;7.40;;;4.80;99.90;;;;;;5049109;28;20041;-75
2023/01/23 12:26:18;;;;;;;10.95;6.93;;;4.80;99.90;;;;;;5054712;28;20513;-76
2023/01/23 12:29:08;;;;;;;11.13;7.38;;;4.80;99.90;;;;;;5044813;28;20029;-76
2023/01/23 12:31:50;;;;;;;12.13;7.15;;;4.80;99.90;;;;;;5039130;28;20074;-75
2023/01/23 12:34:49;;;;;;;11.35;6.53;;;4.80;99.90;;;;;;5043382;28;20546;-76
2023/01/23 12:37:40;;;;;;;11.65;6.90;;;4.80;99.90;;;;;;5042418;28;20039;-76
2023/01/23 12:40:13;;;;;;;12.20;6.82;;;4.80;99.90;;;;;;5039580;28;20034;-76
2023/01/23 12:43:02;;;;;;;10.40;7.40;;;4.80;99.90;;;;;;5038682;28;20056;-76
2023/01/23 12:45:31;;;;;;;12.18;7.50;;;4.80;99.90;;;;;;5045108;28;20103;-76
2023/01/23 12:48:05;;;;;;;11.75;7.60;;;5.00;99.90;;;;;;5039268;28;20051;-76
2023/01/23 12:50:52;;;;;;;11.40;7.40;;;4.80;99.90;;;;;;5054019;28;20037;-77
2023/01/23 12:53:21;;;;;;;13.43;7.43;;;4.80;99.90;;;;;;5051627;28;20505;-77
2023/01/23 12:56:12;;;;;;;12.15;7.53;;;4.90;99.90;;;;;;5059720;28;20489;-78
2023/01/23 12:58:46;;;;;;;10.73;6.70;;;4.90;99.90;;;;;;5046274;28;20048;-77
2023/01/23 13:01:50;;;;;;;11.68;6.78;;;4.90;99.90;;;;;;5056997;28;20036;-77
2023/01/23 13:04:22;;;;;;;14.57;7.85;;;4.90;99.90;;;;;;5035187;28;20086;-77
2023/01/23 13:06:59;;;;;;;13.30;6.97;;;4.90;99.90;;;;;;5060494;28;20052;-77
2023/01/23 13:09:55;;;;;;;13.63;7.13;;;4.90;99.90;;;;;;5051090;28;20041;-77